Time;durP1;ratioP1;P1;durP2;ratioP2;P2;SDS_P1;SDS_P2;PMS_P1;PMS_P2;Temp;Humidity;BMP_temperature;BMP_pressure;BME280_temperature;BME280_humidity;BME280_pressure;Samples;Min_cycle;Max_cycle;Signal;HPM_P1;HPM_P2
2023/11/20 00:02:38;;;;;;;14.43;5.55;;;12.20;99.90;;;;;;6259650;28;20045;-78
2023/11/20 00:05:41;;;;;;;12.38;3.70;;;12.10;99.90;;;;;;6260289;28;20041;-78
2023/11/20 00:08:43;;;;;;;12.45;2.65;;;12.10;99.90;;;;;;6260897;28;20049;-79
2023/11/20 00:11:45;;;;;;;13.98;3.00;;;12.10;99.90;;;;;;6261506;28;20056;-78
2023/11/20 00:14:46;;;;;;;21.13;4.82;;;12.10;99.90;;;;;;6267134;28;20049;-78
2023/11/20 00:17:48;;;;;;;11.90;3.28;;;12.10;99.90;;;;;;6260730;28;20052;-79
2023/11/20 00:20:51;;;;;;;17.10;2.67;;;12.00;99.90;;;;;;6262040;28;20053;-79
2023/11/20 00:23:53;;;;;;;12.75;3.55;;;12.10;99.90;;;;;;6267737;28;20052;-79
2023/11/20 00:26:54;;;;;;;12.35;3.10;;;12.10;99.90;;;;;;6262199;28;20052;-79
2023/11/20 00:29:56;;;;;;;15.07;2.80;;;12.10;99.90;;;;;;6266619;28;20041;-79
2023/11/20 00:32:58;;;;;;;17.67;3.70;;;12.10;99.90;;;;;;6261667;28;20042;-78
2023/11/20 00:36:02;;;;;;;16.05;2.75;;;12.20;99.90;;;;;;6266041;28;20180;-78
2023/11/20 00:39:04;;;;;;;14.93;4.28;;;12.30;99.90;;;;;;6265499;28;20048;-78
2023/11/20 00:42:07;;;;;;;14.32;2.53;;;12.30;99.90;;;;;;6254914;28;20041;-78
2023/11/20 00:45:09;;;;;;;18.75;5.00;;;12.40;99.90;;;;;;6264965;28;20042;-78
2023/11/20 00:48:13;;;;;;;16.90;4.70;;;12.40;99.90;;;;;;6271397;28;20049;-78
2023/11/20 00:51:16;;;;;;;6.20;1.83;;;12.50;99.90;;;;;;6280653;28;20041;-78
2023/11/20 00:54:17;;;;;;;14.88;3.25;;;12.60;99.90;;;;;;6276515;28;20524;-79
2023/11/20 00:57:19;;;;;;;14.82;2.85;;;12.60;99.90;;;;;;6276120;28;20540;-79
2023/11/20 01:00:22;;;;;;;13.52;4.47;;;12.60;99.90;;;;;;6274943;28;20414;-77
2023/11/20 01:03:23;;;;;;;13.85;3.58;;;12.70;99.90;;;;;;6285967;28;20041;-77
2023/11/20 01:06:26;;;;;;;15.25;2.65;;;12.70;99.90;;;;;;6282965;28;20051;-80
2023/11/20 01:09:28;;;;;;;15.48;2.45;;;12.70;99.90;;;;;;6278561;28;20037;-79
2023/11/20 01:12:30;;;;;;;11.07;4.35;;;12.70;99.90;;;;;;6278552;28;20049;-80
2023/11/20 01:15:32;;;;;;;9.68;3.67;;;12.70;99.90;;;;;;6265447;28;20430;-80
2023/11/20 01:18:35;;;;;;;10.55;3.65;;;12.70;99.90;;;;;;6277524;28;20073;-80
2023/11/20 01:21:40;;;;;;;18.42;2.47;;;12.70;99.90;;;;;;6268766;28;20132;-80
2023/11/20 01:24:42;;;;;;;14.57;3.40;;;12.70;99.90;;;;;;6276400;28;20059;-78
2023/11/20 01:27:43;;;;;;;12.88;2.72;;;12.70;99.90;;;;;;6276479;28;20055;-78
2023/11/20 01:30:45;;;;;;;11.00;2.58;;;12.70;99.90;;;;;;6264441;28;20541;-80
2023/11/20 01:33:47;;;;;;;15.25;3.60;;;12.70;99.90;;;;;;6258915;28;20514;-80
2023/11/20 01:36:50;;;;;;;18.98;3.33;;;12.80;99.90;;;;;;6267785;28;20049;-79
2023/11/20 01:39:51;;;;;;;18.17;3.40;;;12.80;99.90;;;;;;6260603;28;20057;-77
2023/11/20 01:42:53;;;;;;;13.02;3.55;;;12.80;99.90;;;;;;6266575;28;20133;-79
2023/11/20 01:46:00;;;;;;;13.45;3.17;;;12.80;99.90;;;;;;6267932;28;20047;-77
2023/11/20 01:49:03;;;;;;;21.45;4.30;;;12.80;99.90;;;;;;6261865;28;20037;-80
2023/11/20 01:52:09;;;;;;;18.50;3.67;;;12.80;99.90;;;;;;6250801;28;20053;-80
2023/11/20 01:55:14;;;;;;;16.55;3.30;;;12.80;99.90;;;;;;6250279;28;20045;-79
2023/11/20 01:58:15;;;;;;;10.45;4.05;;;12.80;99.90;;;;;;6250674;28;20053;-79
2023/11/20 02:01:17;;;;;;;14.35;3.13;;;12.80;99.90;;;;;;6255095;28;20048;-79
2023/11/20 02:04:23;;;;;;;13.20;3.60;;;12.80;99.90;;;;;;6251595;28;20045;-79
2023/11/20 02:07:26;;;;;;;13.05;3.85;;;12.80;99.90;;;;;;6249056;28;20045;-79
2023/11/20 02:10:28;;;;;;;15.73;2.47;;;12.70;99.90;;;;;;6248944;28;20041;-79
2023/11/20 02:13:30;;;;;;;17.80;5.00;;;12.70;99.90;;;;;;6249313;28;20057;-79
2023/11/20 02:16:32;;;;;;;14.35;4.55;;;12.70;99.90;;;;;;6248781;28;20063;-77
2023/11/20 02:19:33;;;;;;;7.80;2.70;;;12.70;99.90;;;;;;6247300;28;20056;-79
2023/11/20 02:22:36;;;;;;;12.35;2.47;;;12.80;99.90;;;;;;6247921;28;20056;-78
2023/11/20 02:25:38;;;;;;;12.23;3.33;;;12.80;99.90;;;;;;6247316;28;20402;-79
2023/11/20 02:28:41;;;;;;;20.27;2.67;;;12.80;99.90;;;;;;6247800;28;20073;-79
2023/11/20 02:31:44;;;;;;;17.35;3.05;;;12.80;99.90;;;;;;6250626;28;20045;-78
2023/11/20 02:34:46;;;;;;;15.10;3.85;;;12.80;99.90;;;;;;6246488;28;20425;-79
2023/11/20 02:37:48;;;;;;;9.73;3.58;;;12.80;99.90;;;;;;6246982;28;20057;-80
2023/11/20 02:40:49;;;;;;;17.33;2.78;;;12.80;99.90;;;;;;6245869;28;20510;-78
2023/11/20 02:43:51;;;;;;;13.10;3.88;;;12.80;99.90;;;;;;6253743;28;20522;-79
2023/11/20 02:46:54;;;;;;;15.48;3.70;;;12.80;99.90;;;;;;6246114;28;20421;-78
2023/11/20 02:49:56;;;;;;;7.68;2.67;;;12.80;99.90;;;;;;6252869;28;20041;-79
2023/11/20 02:52:58;;;;;;;16.00;2.70;;;12.90;99.90;;;;;;6248253;28;20034;-79
2023/11/20 02:55:59;;;;;;;20.25;4.22;;;12.80;99.90;;;;;;6247636;28;20051;-79
2023/11/20 02:59:01;;;;;;;11.32;2.53;;;12.90;99.90;;;;;;6245326;28;20510;-78
2023/11/20 03:02:05;;;;;;;13.27;2.75;;;12.90;99.90;;;;;;6245833;28;20609;-79
2023/11/20 03:05:08;;;;;;;15.27;2.97;;;12.90;99.90;;;;;;6245711;28;20042;-79
2023/11/20 03:08:09;;;;;;;14.07;3.28;;;12.90;99.90;;;;;;6256118;28;20049;-79
2023/11/20 03:11:11;;;;;;;16.35;2.88;;;12.90;99.90;;;;;;6245056;28;20049;-79
2023/11/20 03:14:13;;;;;;;13.05;4.40;;;12.90;99.90;;;;;;6245249;28;20072;-78
2023/11/20 03:17:17;;;;;;;15.95;3.85;;;12.90;99.90;;;;;;6247820;28;20052;-80
2023/11/20 03:20:20;;;;;;;11.80;2.33;;;12.90;99.90;;;;;;6249935;28;20132;-80
2023/11/20 03:23:22;;;;;;;11.07;2.60;;;12.90;99.90;;;;;;6248816;28;20045;-79
2023/11/20 03:26:24;;;;;;;14.75;4.07;;;12.90;99.90;;;;;;6249407;28;20058;-81
2023/11/20 03:29:26;;;;;;;9.35;2.85;;;12.80;99.90;;;;;;6248115;28;20048;-80
2023/11/20 03:32:29;;;;;;;20.02;3.33;;;12.80;99.90;;;;;;6248836;28;20038;-79
2023/11/20 03:35:30;;;;;;;17.88;2.95;;;12.80;99.90;;;;;;6252066;28;20041;-77
2023/11/20 03:38:32;;;;;;;14.95;3.80;;;12.80;99.90;;;;;;6260921;28;20049;-78
2023/11/20 03:41:34;;;;;;;11.45;3.42;;;12.80;99.90;;;;;;6257234;28;20052;-77
2023/11/20 03:44:37;;;;;;;13.75;4.00;;;12.80;99.90;;;;;;6259607;28;20060;-77
2023/11/20 03:47:40;;;;;;;11.60;3.00;;;12.80;99.90;;;;;;6258774;28;20058;-78
2023/11/20 03:50:42;;;;;;;16.75;2.92;;;12.70;99.90;;;;;;6249289;28;20045;-77
2023/11/20 03:53:44;;;;;;;15.10;3.80;;;12.70;99.90;;;;;;6249413;28;20080;-76
2023/11/20 03:56:46;;;;;;;17.52;3.40;;;12.70;99.90;;;;;;6248876;28;20045;-77
2023/11/20 03:59:48;;;;;;;15.95;4.28;;;12.70;99.90;;;;;;6249596;28;20053;-77
2023/11/20 04:02:51;;;;;;;9.82;2.63;;;12.70;99.90;;;;;;6249126;28;20037;-76
2023/11/20 04:05:53;;;;;;;14.60;4.03;;;12.70;99.90;;;;;;6249286;28;20053;-79
2023/11/20 04:08:55;;;;;;;12.10;2.58;;;12.60;99.90;;;;;;6249140;28;20041;-79
2023/11/20 04:11:56;;;;;;;8.98;2.35;;;12.60;99.90;;;;;;6257417;28;20041;-77
2023/11/20 04:14:58;;;;;;;12.20;3.05;;;12.60;99.90;;;;;;6248260;28;20045;-77
2023/11/20 04:18:01;;;;;;;20.25;3.95;;;12.60;99.90;;;;;;6257394;28;20049;-77
2023/11/20 04:21:03;;;;;;;26.77;9.43;;;12.50;99.90;;;;;;6248769;28;20045;-79
2023/11/20 04:24:06;;;;;;;11.93;3.08;;;12.50;99.90;;;;;;6249331;28;20054;-78
2023/11/20 04:27:08;;;;;;;13.50;3.35;;;12.50;99.90;;;;;;6248623;28;20052;-77
2023/11/20 04:30:11;;;;;;;20.88;5.15;;;12.50;99.90;;;;;;6250689;28;20053;-76
2023/11/20 04:33:14;;;;;;;13.70;3.92;;;12.50;99.90;;;;;;6254170;28;20052;-77
2023/11/20 04:36:16;;;;;;;7.68;2.35;;;12.60;99.90;;;;;;6252201;28;20053;-76
2023/11/20 04:43:16;;;;;;;13.07;3.38;;;12.60;99.90;;;;;;6258850;28;20616;-78
2023/11/20 04:46:17;;;;;;;12.43;3.45;;;12.50;99.90;;;;;;6243075;28;20053;-77
2023/11/20 04:49:21;;;;;;;11.30;3.47;;;12.50;99.90;;;;;;6242350;28;20052;-78
2023/11/20 04:52:22;;;;;;;15.85;3.03;;;12.50;99.90;;;;;;6248726;28;20045;-76
2023/11/20 04:55:24;;;;;;;13.88;3.65;;;12.50;99.90;;;;;;6247989;28;20041;-76
2023/11/20 04:58:26;;;;;;;14.65;3.03;;;12.50;99.90;;;;;;6235958;28;20102;-78
2023/11/20 05:01:27;;;;;;;12.95;3.58;;;12.50;99.90;;;;;;6235478;28;20572;-77
2023/11/20 05:04:30;;;;;;;21.73;3.63;;;12.50;99.90;;;;;;6248841;28;20075;-77
2023/11/20 05:07:33;;;;;;;12.27;2.42;;;12.50;99.90;;;;;;6232046;28;20045;-77
2023/11/20 05:10:35;;;;;;;8.43;2.63;;;12.50;99.90;;;;;;6247951;28;20045;-78
2023/11/20 05:13:37;;;;;;;9.82;2.90;;;12.50;99.90;;;;;;6242967;28;20137;-78
2023/11/20 05:16:39;;;;;;;25.55;5.15;;;12.50;99.90;;;;;;6251370;28;20046;-78
2023/11/20 05:19:42;;;;;;;15.07;3.47;;;12.50;99.90;;;;;;6252133;28;20392;-77
2023/11/20 05:22:45;;;;;;;14.90;3.17;;;12.50;99.90;;;;;;6248085;28;20056;-77
2023/11/20 05:25:47;;;;;;;10.98;3.35;;;12.50;99.90;;;;;;6262295;28;20502;-78
2023/11/20 05:28:51;;;;;;;21.73;9.00;;;12.50;99.90;;;;;;6264763;28;20417;-78
2023/11/20 05:31:52;;;;;;;14.98;3.45;;;12.50;99.90;;;;;;6256835;28;20047;-78
2023/11/20 05:34:55;;;;;;;17.85;5.20;;;12.50;99.90;;;;;;6252457;28;20046;-78
2023/11/20 05:37:57;;;;;;;8.45;3.50;;;12.40;99.90;;;;;;6243653;28;20061;-77
2023/11/20 05:40:59;;;;;;;11.52;3.38;;;12.40;99.90;;;;;;6238978;28;20041;-78
2023/11/20 05:44:00;;;;;;;10.35;3.28;;;12.40;99.90;;;;;;6231906;28;20046;-78
2023/11/20 05:47:02;;;;;;;11.63;2.78;;;12.40;99.90;;;;;;6247165;28;20049;-78
2023/11/20 05:50:06;;;;;;;13.20;4.00;;;12.40;99.90;;;;;;6238915;28;20069;-77
2023/11/20 05:53:08;;;;;;;8.30;2.25;;;12.30;99.90;;;;;;6240414;28;20037;-77
2023/11/20 05:56:10;;;;;;;14.50;2.70;;;12.30;99.90;;;;;;6247882;28;20053;-77
2023/11/20 05:59:12;;;;;;;10.90;3.92;;;12.40;99.90;;;;;;6236979;28;20042;-77
2023/11/20 06:02:14;;;;;;;18.70;3.83;;;12.30;99.90;;;;;;6240645;28;20486;-78
2023/11/20 06:05:17;;;;;;;12.25;2.28;;;12.30;99.90;;;;;;6246883;28;20041;-77
2023/11/20 06:08:19;;;;;;;12.85;3.40;;;12.30;99.90;;;;;;6237734;28;20052;-77
2023/11/20 06:11:21;;;;;;;8.38;2.40;;;12.30;99.90;;;;;;6234456;28;20046;-78
2023/11/20 06:14:23;;;;;;;14.65;2.88;;;12.30;99.90;;;;;;6230213;28;20041;-78
2023/11/20 06:17:25;;;;;;;11.35;4.40;;;12.30;99.90;;;;;;6246708;28;20424;-77
2023/11/20 06:20:28;;;;;;;12.82;3.10;;;12.40;99.90;;;;;;6246951;28;20419;-78
2023/11/20 06:23:30;;;;;;;16.13;2.80;;;12.30;99.90;;;;;;6245918;28;20060;-78
2023/11/20 06:26:32;;;;;;;7.97;2.45;;;12.40;99.90;;;;;;6246897;28;20172;-78
2023/11/20 06:29:34;;;;;;;8.82;2.80;;;12.40;99.90;;;;;;6246180;28;20051;-79
2023/11/20 06:32:36;;;;;;;10.07;2.63;;;12.40;99.90;;;;;;6246318;28;20045;-78
2023/11/20 06:35:39;;;;;;;10.05;2.28;;;12.30;99.90;;;;;;6246725;28;20053;-77
2023/11/20 06:38:41;;;;;;;8.77;2.90;;;12.30;99.90;;;;;;6243148;28;20482;-78
2023/11/20 06:41:43;;;;;;;10.88;2.40;;;12.30;99.90;;;;;;6240127;28;20533;-78
2023/11/20 06:44:44;;;;;;;11.65;3.05;;;12.30;99.90;;;;;;6243535;28;20050;-78
2023/11/20 06:47:46;;;;;;;13.38;3.40;;;12.30;99.90;;;;;;6238425;28;20183;-78
2023/11/20 06:50:50;;;;;;;12.15;3.08;;;12.30;99.90;;;;;;6231952;28;20046;-77
2023/11/20 06:53:52;;;;;;;10.52;2.22;;;12.30;99.90;;;;;;6221345;28;20410;-76
2023/11/20 06:56:53;;;;;;;4.68;2.45;;;12.30;99.90;;;;;;6232792;28;20052;-77
2023/11/20 06:59:55;;;;;;;7.45;1.83;;;12.20;99.90;;;;;;6231340;28;20060;-77
2023/11/20 07:02:57;;;;;;;6.15;2.03;;;12.20;99.90;;;;;;6237376;28;20572;-78
2023/11/20 07:06:00;;;;;;;10.27;2.60;;;12.20;99.90;;;;;;6235757;28;20195;-77
2023/11/20 07:09:11;;;;;;;11.48;3.22;;;12.20;99.90;;;;;;6245851;28;20050;-77
2023/11/20 07:12:13;;;;;;;13.07;3.28;;;12.20;99.90;;;;;;6238631;28;20494;-76
2023/11/20 07:15:14;;;;;;;15.60;3.53;;;12.10;99.90;;;;;;6240891;28;20391;-76
2023/11/20 07:18:16;;;;;;;8.57;2.60;;;12.10;99.90;;;;;;6246790;28;20051;-76
2023/11/20 07:21:19;;;;;;;13.23;4.60;;;12.10;99.90;;;;;;6245140;28;20430;-76
2023/11/20 07:24:25;;;;;;;10.18;3.20;;;12.20;99.90;;;;;;6245594;28;20730;-76
2023/11/20 07:27:26;;;;;;;11.85;2.60;;;12.20;99.90;;;;;;6242937;28;20137;-77
2023/11/20 07:30:28;;;;;;;9.18;2.42;;;12.20;99.90;;;;;;6228643;28;20056;-76
2023/11/20 07:33:30;;;;;;;16.42;3.72;;;12.30;99.90;;;;;;6232134;28;20049;-77
2023/11/20 07:36:33;;;;;;;9.55;3.25;;;12.30;99.90;;;;;;6254011;28;20053;-77
2023/11/20 07:39:35;;;;;;;11.73;3.70;;;12.30;99.90;;;;;;6245236;28;20724;-77
2023/11/20 07:42:37;;;;;;;10.88;4.07;;;12.30;99.90;;;;;;6244992;28;20115;-78
2023/11/20 07:45:39;;;;;;;29.50;6.57;;;12.30;99.90;;;;;;6240735;28;20048;-78
2023/11/20 07:48:41;;;;;;;14.15;4.65;;;12.30;99.90;;;;;;6233588;28;20053;-78
2023/11/20 07:51:44;;;;;;;11.85;3.40;;;12.40;99.90;;;;;;6228428;28;20046;-77
2023/11/20 07:54:46;;;;;;;10.13;3.33;;;12.40;99.90;;;;;;6241980;28;20519;-77
2023/11/20 07:57:47;;;;;;;10.60;3.67;;;12.40;99.90;;;;;;6244602;28;20503;-77
2023/11/20 08:00:49;;;;;;;11.80;2.78;;;12.40;99.90;;;;;;6244218;28;20064;-77
2023/11/20 08:03:51;;;;;;;12.75;2.22;;;12.40;99.90;;;;;;6236906;28;20045;-77
2023/11/20 08:06:54;;;;;;;15.02;2.55;;;12.40;99.90;;;;;;6236373;28;20495;-78
2023/11/20 08:09:56;;;;;;;11.30;3.47;;;12.40;99.90;;;;;;6236067;28;20072;-77
2023/11/20 08:12:59;;;;;;;6.82;2.20;;;12.40;99.90;;;;;;6244678;28;20124;-76
2023/11/20 08:16:02;;;;;;;16.98;5.40;;;12.40;99.90;;;;;;6237269;28;20050;-76
2023/11/20 08:19:04;;;;;;;13.35;3.72;;;12.40;99.90;;;;;;6228863;28;20616;-78
2023/11/20 08:22:07;;;;;;;12.38;3.40;;;12.40;99.90;;;;;;6217125;28;20059;-77
2023/11/20 08:25:10;;;;;;;7.82;2.50;;;12.40;99.90;;;;;;6249270;28;20041;-77
2023/11/20 08:28:11;;;;;;;11.35;3.00;;;12.40;99.90;;;;;;6258104;28;20049;-79
2023/11/20 08:31:13;;;;;;;12.30;3.47;;;12.40;99.90;;;;;;6251464;28;20041;-77
2023/11/20 08:34:15;;;;;;;13.07;2.75;;;12.40;99.90;;;;;;6239589;28;20041;-77
2023/11/20 08:37:18;;;;;;;8.55;3.25;;;12.30;99.90;;;;;;6240989;28;20045;-77
2023/11/20 08:40:20;;;;;;;9.80;2.50;;;12.10;99.90;;;;;;6240987;28;20502;-77
2023/11/20 08:43:23;;;;;;;12.32;3.63;;;11.90;99.90;;;;;;6226457;28;20407;-79
2023/11/20 08:46:24;;;;;;;11.85;2.53;;;11.70;99.90;;;;;;6243528;28;20053;-77
2023/11/20 08:49:26;;;;;;;8.77;2.83;;;11.60;99.90;;;;;;6239765;28;20054;-77
2023/11/20 08:52:29;;;;;;;16.00;4.18;;;11.60;99.90;;;;;;6227877;28;20050;-76
2023/11/20 08:55:31;;;;;;;14.25;3.38;;;11.50;99.90;;;;;;6234392;28;20054;-77
2023/11/20 08:58:33;;;;;;;8.73;2.67;;;11.40;99.90;;;;;;6228982;28;20107;-83
2023/11/20 09:01:35;;;;;;;15.15;3.25;;;11.30;99.90;;;;;;6234030;28;20411;-76
2023/11/20 09:04:37;;;;;;;13.02;2.72;;;11.30;99.90;;;;;;6228532;28;20053;-77
2023/11/20 09:07:40;;;;;;;9.77;2.53;;;11.40;99.90;;;;;;6237720;28;20049;-77
2023/11/20 09:10:42;;;;;;;9.60;2.20;;;11.60;99.90;;;;;;6235236;28;20176;-77
2023/11/20 09:13:43;;;;;;;10.98;2.85;;;11.70;99.90;;;;;;6236821;28;20045;-77
2023/11/20 09:16:45;;;;;;;16.35;3.45;;;11.70;99.90;;;;;;6246723;28;20041;-78
2023/11/20 09:19:47;;;;;;;14.10;2.78;;;11.70;99.90;;;;;;6247723;28;20048;-76
2023/11/20 09:22:50;;;;;;;12.25;3.58;;;11.60;99.90;;;;;;6261785;28;20053;-77
2023/11/20 09:25:51;;;;;;;15.57;2.55;;;11.60;99.90;;;;;;6250406;28;20038;-78
2023/11/20 09:28:53;;;;;;;11.43;3.22;;;11.50;99.90;;;;;;6231880;28;20053;-76
2023/11/20 09:31:55;;;;;;;13.82;2.53;;;11.40;99.90;;;;;;6233414;28;20132;-78
2023/11/20 09:34:57;;;;;;;10.98;2.60;;;11.40;99.90;;;;;;6240511;28;20049;-77
2023/11/20 09:38:00;;;;;;;8.60;3.17;;;11.30;99.90;;;;;;6234140;28;20049;-80
2023/11/20 09:41:01;;;;;;;6.82;3.08;;;11.20;99.90;;;;;;6225367;28;20050;-77
2023/11/20 09:44:05;;;;;;;14.25;2.80;;;11.20;99.90;;;;;;6224442;28;20053;-78
2023/11/20 09:47:10;;;;;;;6.15;2.50;;;11.20;99.90;;;;;;6243548;28;20041;-77
2023/11/20 09:50:12;;;;;;;18.65;3.70;;;11.30;99.90;;;;;;6246063;28;20157;-78
2023/11/20 09:53:15;;;;;;;7.10;2.30;;;11.40;99.90;;;;;;6259924;28;20037;-77
2023/11/20 09:56:17;;;;;;;20.42;5.68;;;11.50;99.90;;;;;;6246126;28;20041;-80
2023/11/20 09:59:19;;;;;;;16.10;2.58;;;11.60;99.90;;;;;;6247589;28;20055;-79
2023/11/20 10:02:21;;;;;;;13.68;2.88;;;11.60;99.90;;;;;;6247711;28;20467;-79
2023/11/20 10:05:28;;;;;;;20.48;3.67;;;11.60;99.90;;;;;;6252674;28;20041;-80
2023/11/20 10:08:34;;;;;;;13.35;2.10;;;11.60;99.90;;;;;;6264824;28;20049;-78
2023/11/20 10:11:40;;;;;;;10.15;2.72;;;11.70;99.90;;;;;;6227659;28;20050;-79
2023/11/20 10:14:42;;;;;;;13.38;2.35;;;11.80;99.90;;;;;;6234124;28;20037;-79
2023/11/20 10:17:44;;;;;;;9.35;2.72;;;11.80;99.90;;;;;;6250567;28;20045;-79
2023/11/20 10:20:47;;;;;;;14.10;3.95;;;11.80;99.90;;;;;;6264637;28;20446;-77
2023/11/20 10:23:54;;;;;;;13.10;2.25;;;11.70;99.90;;;;;;6242613;28;20042;-78
2023/11/20 10:26:56;;;;;;;8.90;1.90;;;11.80;99.90;;;;;;6245374;28;20064;-78
2023/11/20 10:29:57;;;;;;;7.85;2.92;;;12.00;99.90;;;;;;6251858;28;20048;-78
2023/11/20 10:32:59;;;;;;;2.83;1.08;;;12.40;99.90;;;;;;6242019;28;20037;-79
2023/11/20 10:36:12;;;;;;;5.32;1.95;;;12.80;99.90;;;;;;6228182;28;20045;-77
2023/11/20 10:39:18;;;;;;;7.57;1.55;;;12.90;99.90;;;;;;6245580;28;20042;-78
2023/11/20 10:42:19;;;;;;;9.18;2.03;;;12.90;99.90;;;;;;6245367;28;20045;-79
2023/11/20 10:45:22;;;;;;;10.93;2.15;;;13.00;99.90;;;;;;6244207;28;20418;-78
2023/11/20 10:48:24;;;;;;;6.05;2.17;;;13.20;99.90;;;;;;6243041;28;20125;-79
2023/11/20 10:51:26;;;;;;;14.77;5.20;;;13.50;99.90;;;;;;6227881;28;20212;-78
2023/11/20 10:54:35;;;;;;;5.95;2.67;;;13.70;99.90;;;;;;6239139;28;20055;-77
2023/11/20 10:57:38;;;;;;;3.80;1.15;;;13.90;99.90;;;;;;6245898;28;20536;-78
2023/11/20 11:00:40;;;;;;;7.97;2.63;;;14.20;99.90;;;;;;6225865;28;20206;-78
2023/11/20 11:03:42;;;;;;;12.00;3.28;;;14.30;99.90;;;;;;6241359;28;20046;-78
2023/11/20 11:06:48;;;;;;;12.27;1.60;;;14.30;99.90;;;;;;6245941;28;20160;-79
2023/11/20 11:09:53;;;;;;;7.10;1.65;;;14.10;99.90;;;;;;6245316;28;20049;-78
2023/11/20 11:12:58;;;;;;;5.18;2.75;;;13.90;99.90;;;;;;6245736;28;20048;-79
2023/11/20 11:16:01;;;;;;;5.22;2.38;;;13.50;99.90;;;;;;6246686;28;20072;-78
2023/11/20 11:19:07;;;;;;;2.53;1.10;;;13.10;99.90;;;;;;6244658;28;20046;-79
2023/11/20 11:22:13;;;;;;;4.32;1.63;;;12.90;99.90;;;;;;6258400;22;20513;-79
2023/11/20 11:25:19;;;;;;;7.65;1.60;;;12.90;99.90;;;;;;6221131;28;20422;-79
2023/11/20 11:28:23;;;;;;;4.75;1.77;;;13.00;99.90;;;;;;6237597;28;20136;-78
2023/11/20 11:31:36;;;;;;;9.77;2.63;;;13.30;99.90;;;;;;6245150;28;20116;-78
2023/11/20 11:34:57;;;;;;;3.08;1.42;;;13.50;99.90;;;;;;6244905;28;20042;-78
2023/11/20 11:38:05;;;;;;;5.15;1.85;;;13.60;99.90;;;;;;6244518;28;20514;-78
2023/11/20 11:41:33;;;;;;;5.35;1.40;;;13.60;99.90;;;;;;6240216;28;20045;-79
2023/11/20 11:44:46;;;;;;;5.45;1.88;;;13.80;99.90;;;;;;6214683;28;20046;-79
2023/11/20 11:47:49;;;;;;;6.25;2.20;;;13.90;99.90;;;;;;6221001;28;20054;-77
2023/11/20 11:50:51;;;;;;;4.32;1.95;;;13.90;99.90;;;;;;6215923;28;20042;-77
2023/11/20 11:54:14;;;;;;;7.68;1.40;;;13.90;99.90;;;;;;6220748;28;20038;-77
2023/11/20 11:57:20;;;;;;;3.63;1.77;;;13.70;99.90;;;;;;6245785;28;20502;-78
2023/11/20 12:00:22;;;;;;;6.57;1.50;;;13.60;99.90;;;;;;6249307;28;20498;-79
2023/11/20 12:03:34;;;;;;;4.00;1.73;;;13.30;99.90;;;;;;6217482;28;20119;-78
2023/11/20 12:06:36;;;;;;;5.45;1.35;;;13.00;99.90;;;;;;6241501;28;20499;-77
2023/11/20 12:09:56;;;;;;;5.05;1.27;;;12.60;99.90;;;;;;6250241;28;20049;-79
2023/11/20 12:13:15;;;;;;;4.53;2.55;;;12.20;99.90;;;;;;6246969;28;20056;-79
2023/11/20 12:16:39;;;;;;;5.43;1.30;;;12.20;99.90;;;;;;6215973;28;20046;-77
2023/11/20 12:49:03;;;;;;;12.60;2.28;;;13.00;99.90;;;;;;7362307;22;20092;-76
2023/11/20 12:52:07;;;;;;;5.38;1.58;;;13.00;99.90;;;;;;6187127;28;20054;-80
2023/11/20 12:55:10;;;;;;;3.85;1.45;;;12.80;99.90;;;;;;6206428;28;20498;-80
2023/11/20 12:58:12;;;;;;;1.50;1.15;;;12.70;99.90;;;;;;6225290;28;20049;-79
2023/11/20 13:01:14;;;;;;;8.23;1.17;;;12.50;99.90;;;;;;6188964;28;20058;-77
2023/11/20 13:04:16;;;;;;;6.38;1.75;;;12.30;99.90;;;;;;6187063;28;20118;-78
2023/11/20 13:07:21;;;;;;;4.78;1.23;;;12.20;99.90;;;;;;6198573;28;20064;-77
2023/11/20 13:10:25;;;;;;;3.30;1.42;;;12.10;99.90;;;;;;6216362;28;20068;-76
2023/11/20 13:13:28;;;;;;;8.63;2.05;;;12.00;99.90;;;;;;6212644;28;20046;-78
2023/11/20 13:16:33;;;;;;;5.10;2.25;;;11.80;99.90;;;;;;6208628;28;20087;-75
2023/11/20 13:19:39;;;;;;;8.25;4.93;;;11.60;99.90;;;;;;6207652;28;20407;-77
2023/11/20 13:22:45;;;;;;;3.25;2.17;;;11.50;99.90;;;;;;6208193;28;20505;-76
2023/11/20 13:25:49;;;;;;;12.30;6.95;;;11.40;99.90;;;;;;6210829;28;20053;-77
2023/11/20 13:28:51;;;;;;;3.67;1.27;;;11.30;99.90;;;;;;6208535;28;20045;-77
2023/11/20 13:31:53;;;;;;;6.80;3.88;;;11.30;99.90;;;;;;6213375;28;20073;-75
2023/11/20 13:34:54;;;;;;;28.88;16.92;;;11.30;99.90;;;;;;6211216;28;20049;-77
2023/11/20 13:37:57;;;;;;;8.95;5.82;;;11.20;99.90;;;;;;6208412;28;20053;-76
2023/11/20 13:41:00;;;;;;;32.53;22.85;;;11.20;99.90;;;;;;6190385;28;20533;-78
2023/11/20 13:44:03;;;;;;;62.38;40.75;;;11.30;99.90;;;;;;6194341;28;20046;-77
2023/11/20 13:47:05;;;;;;;30.50;22.02;;;11.30;99.90;;;;;;6188303;28;20475;-77
2023/11/20 13:50:11;;;;;;;48.70;34.92;;;11.20;99.90;;;;;;6200931;28;20050;-77
2023/11/20 13:53:15;;;;;;;30.00;21.50;;;11.30;99.90;;;;;;6222748;28;20045;-77
2023/11/20 13:56:18;;;;;;;11.65;6.85;;;11.30;99.90;;;;;;6223377;28;20042;-77
2023/11/20 13:59:20;;;;;;;19.73;17.58;;;11.60;99.90;;;;;;6224226;28;20042;-77
2023/11/20 14:02:21;;;;;;;5.78;2.65;;;12.00;99.90;;;;;;6214558;28;20544;-78
2023/11/20 14:05:23;;;;;;;19.73;12.32;;;12.50;99.90;;;;;;6225865;28;20044;-78
2023/11/20 14:08:29;;;;;;;23.45;18.13;;;12.90;99.90;;;;;;6225528;28;20046;-78
2023/11/20 14:11:32;;;;;;;35.83;31.25;;;13.10;99.90;;;;;;6214646;28;20054;-78
2023/11/20 14:14:33;;;;;;;14.05;10.07;;;13.30;99.90;;;;;;6231815;28;20042;-78
2023/11/20 14:17:35;;;;;;;35.38;25.83;;;13.40;99.90;;;;;;6207192;28;20061;-78
2023/11/20 14:20:37;;;;;;;17.27;15.65;;;13.40;99.90;;;;;;6190236;28;20046;-78
2023/11/20 14:23:42;;;;;;;8.70;2.60;;;13.40;99.90;;;;;;6192636;28;20050;-78
2023/11/20 14:26:44;;;;;;;5.10;3.25;;;13.30;99.90;;;;;;6189443;28;20495;-78
2023/11/20 14:29:45;;;;;;;6.80;6.18;;;13.10;99.90;;;;;;6192515;28;20042;-79
2023/11/20 14:32:48;;;;;;;4.93;1.95;;;12.90;99.90;;;;;;6217625;28;20056;-78
2023/11/20 14:35:51;;;;;;;3.20;1.83;;;12.70;99.90;;;;;;6213804;28;20057;-77
2023/11/20 14:38:56;;;;;;;6.65;2.58;;;12.50;99.90;;;;;;6203979;28;20049;-78
2023/11/20 14:41:57;;;;;;;4.20;1.50;;;12.40;99.90;;;;;;6189125;28;20065;-78
2023/11/20 14:44:59;;;;;;;8.88;1.80;;;12.40;99.90;;;;;;6191933;28;20042;-78
2023/11/20 14:48:02;;;;;;;14.38;12.80;;;12.30;99.90;;;;;;6193392;28;20061;-78
2023/11/20 14:51:04;;;;;;;49.45;41.17;;;12.20;99.90;;;;;;6187764;28;20054;-78
2023/11/20 14:54:12;;;;;;;45.05;36.53;;;12.30;99.90;;;;;;6188042;28;20047;-78
2023/11/20 14:57:14;;;;;;;18.45;13.73;;;12.40;99.90;;;;;;6201299;28;20054;-79
2023/11/20 15:00:17;;;;;;;11.63;10.43;;;12.40;99.90;;;;;;6225642;28;20061;-81
2023/11/20 15:03:19;;;;;;;11.52;6.32;;;12.30;99.90;;;;;;6228336;28;20558;-77
2023/11/20 15:06:21;;;;;;;8.05;1.90;;;12.20;99.90;;;;;;6228369;28;20053;-78
2023/11/20 15:09:25;;;;;;;3.13;1.65;;;12.00;99.90;;;;;;6228881;28;20422;-78
2023/11/20 15:12:27;;;;;;;5.70;1.25;;;11.90;99.90;;;;;;6214089;28;20502;-78
2023/11/20 15:15:29;;;;;;;6.05;1.60;;;11.70;99.90;;;;;;6216358;28;20055;-78
2023/11/20 15:18:31;;;;;;;6.45;2.85;;;11.50;99.90;;;;;;6213533;28;20046;-77
2023/11/20 15:21:33;;;;;;;5.15;1.83;;;11.40;99.90;;;;;;6215438;28;20046;-78
2023/11/20 15:24:36;;;;;;;4.50;2.10;;;11.20;99.90;;;;;;6216275;28;20071;-78
2023/11/20 15:27:39;;;;;;;3.38;1.60;;;11.00;99.90;;;;;;6199077;28;20057;-78
2023/11/20 15:30:41;;;;;;;10.20;1.70;;;10.90;99.90;;;;;;6201668;28;20404;-78
2023/11/20 15:33:43;;;;;;;5.18;1.55;;;10.80;99.90;;;;;;6217911;28;20046;-78
2023/11/20 15:36:45;;;;;;;6.55;1.70;;;10.70;99.90;;;;;;6222229;28;20057;-79
2023/11/20 15:39:49;;;;;;;3.40;1.52;;;10.60;99.90;;;;;;6200226;28;20481;-79
2023/11/20 15:42:51;;;;;;;3.05;1.50;;;10.50;99.90;;;;;;6207162;28;20064;-78
2023/11/20 15:45:55;;;;;;;5.90;1.70;;;10.50;99.90;;;;;;6218867;28;20054;-79
2023/11/20 15:48:57;;;;;;;14.73;12.18;;;10.40;99.90;;;;;;6202427;28;20053;-80
2023/11/20 15:51:59;;;;;;;1.92;1.30;;;10.40;99.90;;;;;;6198096;28;20042;-78
2023/11/20 15:55:02;;;;;;;6.57;2.42;;;10.40;99.90;;;;;;6211668;28;20041;-77
2023/11/20 15:58:04;;;;;;;4.68;2.40;;;10.40;99.90;;;;;;6219921;28;20046;-77
2023/11/20 16:01:07;;;;;;;4.43;1.83;;;10.40;99.90;;;;;;6205018;28;20057;-79
2023/11/20 16:04:10;;;;;;;5.53;1.70;;;10.40;99.90;;;;;;6231880;28;20544;-78
2023/11/20 16:07:12;;;;;;;4.80;1.20;;;10.40;99.90;;;;;;6220189;28;20058;-78
2023/11/20 16:10:15;;;;;;;4.55;2.03;;;10.40;99.90;;;;;;6194915;28;20050;-78
2023/11/20 16:13:17;;;;;;;8.07;1.50;;;10.30;99.90;;;;;;6196898;28;20061;-78
2023/11/20 16:16:18;;;;;;;5.80;1.35;;;10.20;99.90;;;;;;6218608;28;20041;-79
2023/11/20 16:19:21;;;;;;;7.35;1.73;;;10.20;99.90;;;;;;6216856;28;20156;-77